createdAt,value
2018-05-18T00:01:39.845Z,94.90
2018-05-18T00:04:08.249Z,95.00
2018-05-18T00:06:37.545Z,95.10
2018-05-18T00:09:06.713Z,95.20
2018-05-18T00:11:35.276Z,95.20
2018-05-18T00:14:03.916Z,95.10
2018-05-18T00:16:32.449Z,95.00
2018-05-18T00:19:00.920Z,95.00
2018-05-18T00:21:29.354Z,95.00
2018-05-18T00:23:58.515Z,95.10
2018-05-18T00:26:27.033Z,95.00
2018-05-18T00:28:56.238Z,94.90
2018-05-18T00:31:24.861Z,95.00
2018-05-18T00:33:53.338Z,94.90
2018-05-18T00:36:21.762Z,94.90
2018-05-18T00:38:50.213Z,95.00
2018-05-18T00:41:18.645Z,94.90
2018-05-18T00:43:47.089Z,95.00
2018-05-18T00:46:15.677Z,95.00
2018-05-18T00:48:44.465Z,95.00
2018-05-18T00:51:12.870Z,94.80
2018-05-18T00:53:41.270Z,94.90
2018-05-18T00:56:09.670Z,94.80
2018-05-18T00:58:38.181Z,94.70
2018-05-18T01:01:07.340Z,94.80
2018-05-18T01:03:35.717Z,95.00
2018-05-18T01:06:04.299Z,94.80
2018-05-18T01:08:32.678Z,94.80
2018-05-18T01:11:01.057Z,94.80
2018-05-18T01:13:29.452Z,94.70
2018-05-18T01:15:57.914Z,94.70
2018-05-18T01:18:26.245Z,94.70
2018-05-18T01:20:55.385Z,94.50
2018-05-18T01:23:23.808Z,94.50
2018-05-18T01:25:52.192Z,94.60
2018-05-18T01:28:20.561Z,94.40
2018-05-18T01:30:48.962Z,94.30
2018-05-18T01:33:17.349Z,94.30
2018-05-18T01:35:45.749Z,94.30
2018-05-18T01:38:14.133Z,94.30
2018-05-18T01:40:42.560Z,94.20
2018-05-18T01:43:10.944Z,94.20
2018-05-18T01:45:40.095Z,94.30
2018-05-18T01:48:08.493Z,94.30
2018-05-18T01:50:36.947Z,94.40
2018-05-18T01:53:05.349Z,94.30
2018-05-18T01:55:33.725Z,94.30
2018-05-18T01:58:02.617Z,94.30
2018-05-18T02:00:30.993Z,94.20
2018-05-18T02:02:59.381Z,94.20
2018-05-18T02:05:27.783Z,94.20
2018-05-18T02:07:56.920Z,94.40
2018-05-18T02:10:25.322Z,94.20
2018-05-18T02:12:53.699Z,94.10
2018-05-18T02:15:22.100Z,94.00
2018-05-18T02:17:50.472Z,94.10
2018-05-18T02:20:18.850Z,94.10
2018-05-18T02:22:47.256Z,94.00
2018-05-18T02:25:16.405Z,94.20
2018-05-18T02:27:44.943Z,94.10
2018-05-18T02:30:14.097Z,94.10
2018-05-18T02:32:42.654Z,94.00
2018-05-18T02:35:11.039Z,94.10
2018-05-18T02:37:39.418Z,94.20
2018-05-18T02:40:07.836Z,94.10
2018-05-18T02:42:36.221Z,94.20
2018-05-18T02:45:05.388Z,94.00
2018-05-18T02:47:33.769Z,94.00
2018-05-18T02:50:02.539Z,93.90
2018-05-18T02:52:31.012Z,94.00
2018-05-18T02:54:59.301Z,94.00
2018-05-18T02:57:27.707Z,94.00
2018-05-18T02:59:56.084Z,94.00
2018-05-18T03:02:24.489Z,94.00
2018-05-18T03:04:53.637Z,94.00
2018-05-18T03:07:22.306Z,94.00
2018-05-18T03:09:50.676Z,94.00
2018-05-18T03:12:19.053Z,94.10
2018-05-18T03:14:47.465Z,94.10
2018-05-18T03:17:15.844Z,94.20
2018-05-18T03:19:44.248Z,94.20
2018-05-18T03:22:12.624Z,94.20
2018-05-18T03:24:41.470Z,94.50
2018-05-18T03:27:09.847Z,94.20
2018-05-18T03:29:38.229Z,94.20
2018-05-18T03:32:06.629Z,94.20
2018-05-18T03:34:35.008Z,94.20
2018-05-18T03:37:03.418Z,94.20
2018-05-18T03:39:32.562Z,94.40
2018-05-18T03:42:00.977Z,94.30
2018-05-18T03:44:29.349Z,94.40
2018-05-18T03:46:57.741Z,94.50
2018-05-18T03:49:26.149Z,94.60
2018-05-18T03:51:54.934Z,94.60
2018-05-18T03:54:23.329Z,94.60
2018-05-18T03:56:51.710Z,94.70
2018-05-18T03:59:20.138Z,94.80
2018-05-18T04:02:06.440Z,94.80
2018-05-18T04:04:52.832Z,95.10
2018-05-18T04:07:38.913Z,94.90
2018-05-18T04:10:07.473Z,95.00
2018-05-18T04:12:35.845Z,95.10
2018-05-18T04:15:04.236Z,95.10
2018-05-18T04:17:32.640Z,95.10
2018-05-18T04:20:01.013Z,95.10
2018-05-18T04:22:29.477Z,95.20
2018-05-18T04:24:57.889Z,95.20
2018-05-18T04:27:26.592Z,95.30
2018-05-18T04:29:55.739Z,95.30
2018-05-18T04:32:24.132Z,95.30
2018-05-18T04:34:52.531Z,95.30
2018-05-18T04:37:21.113Z,95.40
2018-05-18T04:39:49.513Z,95.40
2018-05-18T04:42:18.689Z,95.40
2018-05-18T04:44:47.112Z,95.40
2018-05-18T04:47:15.485Z,95.40
2018-05-18T04:49:43.888Z,95.40
2018-05-18T04:52:13.033Z,95.40
2018-05-18T04:54:42.181Z,95.30
2018-05-18T04:57:10.582Z,95.30
2018-05-18T04:59:38.960Z,95.20
2018-05-18T05:02:07.364Z,95.20
2018-05-18T05:04:36.511Z,95.10
2018-05-18T05:07:04.912Z,95.00
2018-05-18T05:09:33.317Z,95.00
2018-05-18T05:12:02.457Z,94.80
2018-05-18T05:14:30.861Z,94.80
2018-05-18T05:16:59.237Z,94.60
2018-05-18T05:19:27.643Z,94.40
2018-05-18T05:21:56.017Z,94.30
2018-05-18T05:24:24.426Z,94.30
2018-05-18T05:26:52.932Z,93.90
2018-05-18T05:29:21.309Z,93.80
2018-05-18T05:31:49.720Z,93.60
2018-05-18T05:34:18.095Z,93.30
2018-05-18T05:36:46.539Z,93.30
2018-05-18T05:39:14.908Z,93.20
2018-05-18T05:41:43.824Z,92.80
2018-05-18T05:44:12.197Z,92.90
2018-05-18T05:46:40.568Z,92.70
2018-05-18T05:49:08.964Z,92.70
2018-05-18T05:51:37.357Z,92.50
2018-05-18T05:54:05.776Z,92.20
2018-05-18T05:56:34.964Z,91.80
2018-05-18T05:59:04.304Z,91.70
2018-05-18T06:01:32.681Z,91.70
2018-05-18T06:04:01.061Z,91.60
2018-05-18T06:06:29.590Z,91.60
2018-05-18T06:08:58.069Z,91.40
2018-05-18T06:11:26.469Z,91.30
2018-05-18T06:13:55.620Z,91.50
2018-05-18T06:16:24.290Z,91.50
2018-05-18T06:18:52.880Z,91.40
2018-05-18T06:21:21.253Z,91.60
2018-05-18T06:23:49.834Z,91.00
2018-05-18T06:26:18.226Z,90.20
2018-05-18T06:28:46.716Z,90.00
2018-05-18T06:31:15.800Z,88.80
2018-05-18T06:33:44.472Z,88.80
2018-05-18T06:36:12.849Z,87.70
2018-05-18T06:38:41.222Z,87.80
2018-05-18T06:41:09.633Z,87.60
2018-05-18T06:43:38.020Z,87.50
2018-05-18T06:46:06.425Z,86.40
2018-05-18T06:48:35.568Z,83.40
2018-05-18T06:51:04.146Z,84.10
2018-05-18T06:53:32.525Z,82.60
2018-05-18T06:56:00.904Z,82.00
2018-05-18T06:58:29.315Z,81.60
2018-05-18T07:00:58.461Z,80.60
2018-05-18T07:03:26.857Z,80.60
2018-05-18T07:05:55.278Z,80.80
2018-05-18T07:08:24.741Z,81.00
2018-05-18T07:10:53.153Z,80.10
2018-05-18T07:13:21.533Z,78.20
2018-05-18T07:15:49.942Z,76.70
2018-05-18T07:18:18.360Z,74.70
2018-05-18T07:20:46.768Z,75.50
2018-05-18T07:23:15.156Z,76.70
2018-05-18T07:25:44.508Z,76.30
2018-05-18T07:28:12.888Z,76.30
2018-05-18T07:30:41.268Z,74.90
2018-05-18T07:33:09.686Z,73.60
2018-05-18T07:35:38.069Z,73.10
2018-05-18T07:38:07.280Z,70.00
2018-05-18T07:40:36.496Z,70.30
2018-05-18T07:43:05.044Z,71.00
2018-05-18T07:45:33.428Z,68.70
2018-05-18T07:48:02.644Z,67.40
2018-05-18T07:50:31.061Z,67.40
2018-05-18T07:52:59.449Z,67.70
2018-05-18T07:55:27.857Z,68.70
2018-05-18T07:57:57.130Z,67.30
2018-05-18T08:00:25.698Z,67.30
2018-05-18T08:02:54.087Z,67.40
2018-05-18T08:05:22.469Z,64.60
2018-05-18T08:07:50.925Z,65.90
2018-05-18T08:10:20.087Z,64.30
2018-05-18T08:12:49.276Z,64.10
2018-05-18T08:15:17.659Z,64.10
2018-05-18T08:17:46.938Z,62.40
2018-05-18T08:20:15.328Z,62.30
2018-05-18T08:22:43.717Z,60.30
2018-05-18T08:25:12.890Z,60.20
2018-05-18T08:27:41.393Z,60.10
2018-05-18T08:30:09.721Z,60.30
2018-05-18T08:32:38.106Z,60.70
2018-05-18T08:35:06.533Z,58.50
2018-05-18T08:37:35.684Z,57.90
2018-05-18T08:40:04.077Z,57.90
2018-05-18T08:42:32.480Z,59.00
2018-05-18T08:45:01.638Z,58.00
2018-05-18T08:47:30.168Z,57.90
2018-05-18T08:49:59.316Z,54.90
2018-05-18T08:52:27.708Z,54.90
2018-05-18T08:54:56.117Z,55.40
2018-05-18T08:57:25.260Z,52.70
2018-05-18T08:59:53.863Z,52.00
2018-05-18T09:02:22.274Z,51.80
2018-05-18T09:04:50.799Z,50.70
2018-05-18T09:07:19.213Z,50.10
2018-05-18T09:09:47.588Z,51.20
2018-05-18T09:12:16.104Z,51.50
2018-05-18T09:14:45.244Z,54.10
2018-05-18T09:17:13.619Z,53.90
2018-05-18T09:19:42.036Z,53.80
2018-05-18T09:22:10.413Z,52.00
2018-05-18T09:24:39.251Z,51.70
2018-05-18T09:27:07.629Z,51.80
2018-05-18T09:29:36.000Z,51.00
2018-05-18T09:32:04.409Z,51.60
2018-05-18T09:34:32.781Z,48.50
2018-05-18T09:37:01.719Z,48.70
2018-05-18T09:39:30.104Z,48.50
2018-05-18T09:41:59.244Z,49.70
2018-05-18T09:44:27.645Z,49.70
2018-05-18T09:46:56.020Z,50.80
2018-05-18T09:49:24.437Z,52.30
2018-05-18T09:51:53.582Z,52.10
2018-05-18T09:54:22.478Z,52.10
2018-05-18T09:56:50.851Z,55.60
2018-05-18T09:59:19.806Z,52.50
2018-05-18T10:01:48.320Z,50.90
2018-05-18T10:04:16.701Z,48.70
2018-05-18T10:06:45.083Z,47.70
2018-05-18T10:09:13.493Z,46.00
2018-05-18T10:11:41.871Z,47.40
2018-05-18T10:14:10.297Z,47.20
2018-05-18T10:16:38.677Z,47.60
2018-05-18T10:19:07.056Z,48.00
2018-05-18T10:21:35.457Z,48.40
2018-05-18T10:24:03.833Z,49.30
2018-05-18T10:26:32.223Z,48.70
2018-05-18T10:29:00.600Z,47.40
2018-05-18T10:31:29.034Z,46.60
2018-05-18T10:33:57.408Z,44.60
2018-05-18T10:36:26.561Z,39.10
2018-05-18T10:38:54.957Z,39.10
2018-05-18T10:41:23.355Z,38.70
2018-05-18T10:43:52.556Z,36.40
2018-05-18T10:46:21.697Z,34.90
2018-05-18T10:48:50.279Z,34.90
2018-05-18T10:51:18.665Z,35.50
2018-05-18T10:53:47.061Z,36.60
2018-05-18T10:56:15.468Z,33.90
2018-05-18T10:58:44.606Z,32.90
2018-05-18T11:01:13.001Z,32.90
2018-05-18T11:03:41.377Z,34.50
2018-05-18T11:06:09.956Z,32.40
2018-05-18T11:08:38.368Z,33.80
2018-05-18T11:11:07.518Z,34.60
2018-05-18T11:13:35.909Z,34.50
2018-05-18T11:16:04.293Z,34.40
2018-05-18T11:18:32.692Z,35.70
2018-05-18T11:21:01.070Z,35.70
2018-05-18T11:23:29.721Z,35.60
2018-05-18T11:25:58.105Z,35.50
2018-05-18T11:28:26.476Z,33.30
2018-05-18T11:30:54.875Z,33.20
2018-05-18T11:33:23.248Z,33.60
2018-05-18T11:35:51.647Z,35.10
2018-05-18T11:38:20.159Z,33.30
2018-05-18T11:40:49.325Z,31.60
2018-05-18T11:43:17.699Z,31.50
2018-05-18T11:45:46.272Z,33.00
2018-05-18T11:48:14.652Z,35.90
2018-05-18T11:50:43.025Z,36.40
2018-05-18T11:53:11.439Z,36.60
2018-05-18T11:55:40.583Z,36.10
2018-05-18T11:58:08.985Z,35.80
2018-05-18T12:00:37.358Z,34.20
2018-05-18T12:03:05.768Z,32.80
2018-05-18T12:05:34.145Z,30.90
2018-05-18T12:08:02.517Z,31.10
2018-05-18T12:10:30.927Z,31.80
2018-05-18T12:12:59.752Z,31.10
2018-05-18T12:15:28.157Z,31.60
2018-05-18T12:17:56.529Z,30.00
2018-05-18T12:20:24.922Z,30.90
2018-05-18T12:22:53.325Z,30.70
2018-05-18T12:25:22.465Z,29.80
2018-05-18T12:27:51.040Z,29.70
2018-05-18T12:30:19.411Z,30.20
2018-05-18T12:32:47.787Z,30.40
2018-05-18T12:35:16.181Z,29.70
2018-05-18T12:37:44.575Z,30.20
2018-05-18T12:40:13.138Z,33.30
2018-05-18T12:42:41.512Z,32.70
2018-05-18T12:45:09.897Z,32.10
2018-05-18T12:47:38.315Z,32.20
2018-05-18T12:50:06.689Z,33.40
2018-05-18T12:52:35.331Z,31.20
2018-05-18T12:55:03.725Z,32.10
2018-05-18T12:57:32.109Z,31.50
2018-05-18T13:00:00.514Z,29.70
2018-05-18T13:02:28.896Z,30.10
2018-05-18T13:04:57.438Z,29.70
2018-05-18T13:07:25.821Z,30.90
2018-05-18T13:09:54.201Z,31.00
2018-05-18T13:12:23.063Z,29.70
2018-05-18T13:14:51.434Z,30.00
2018-05-18T13:17:21.105Z,27.50
2018-05-18T13:19:49.480Z,29.10
2018-05-18T13:22:17.864Z,29.30
2018-05-18T13:24:46.262Z,29.90
2018-05-18T13:27:15.404Z,29.40
2018-05-18T13:29:43.986Z,29.30
2018-05-18T13:32:14.333Z,27.90
2018-05-18T13:34:42.798Z,29.00
2018-05-18T13:37:11.214Z,29.50
2018-05-18T13:39:40.377Z,28.70
2018-05-18T13:42:08.792Z,28.80
2018-05-18T13:44:37.937Z,30.00
2018-05-18T13:47:06.363Z,30.00
2018-05-18T13:49:35.726Z,29.70
2018-05-18T13:52:04.205Z,29.60
2018-05-18T13:54:32.776Z,29.40
2018-05-18T13:57:01.156Z,29.80
2018-05-18T13:59:29.544Z,30.60
2018-05-18T14:01:57.945Z,29.40
2018-05-18T14:04:26.326Z,30.40
2018-05-18T14:06:54.882Z,31.20
2018-05-18T14:09:23.269Z,32.90
2018-05-18T14:11:51.640Z,35.50
2018-05-18T14:14:20.181Z,35.90
2018-05-18T14:16:48.562Z,37.00
2018-05-18T14:19:16.967Z,36.70
2018-05-18T14:21:45.365Z,37.30
2018-05-18T14:24:13.741Z,38.60
2018-05-18T14:26:42.140Z,39.10
2018-05-18T14:29:10.537Z,39.00
2018-05-18T14:31:40.330Z,40.10
2018-05-18T14:34:08.706Z,40.00
2018-05-18T14:36:37.100Z,39.60
2018-05-18T14:39:07.064Z,41.70
2018-05-18T14:41:35.451Z,41.70
2018-05-18T14:44:04.206Z,41.10
2018-05-18T14:46:32.721Z,39.80
2018-05-18T14:49:01.150Z,38.70
2018-05-18T14:51:30.318Z,41.40
2018-05-18T14:53:58.874Z,41.20
2018-05-18T14:56:27.781Z,42.00
2018-05-18T14:58:56.162Z,42.60
2018-05-18T15:01:24.575Z,42.30
2018-05-18T15:03:53.038Z,42.50
2018-05-18T15:06:21.450Z,41.10
2018-05-18T15:08:50.799Z,42.60
2018-05-18T15:11:19.229Z,42.60
2018-05-18T15:13:48.372Z,42.90
2018-05-18T15:16:16.843Z,42.80
2018-05-18T15:18:45.932Z,41.40
2018-05-18T15:21:14.834Z,41.30
2018-05-18T15:23:43.206Z,41.70
2018-05-18T15:26:11.579Z,43.00
2018-05-18T15:28:40.012Z,43.60
2018-05-18T15:31:09.154Z,44.30
2018-05-18T15:33:38.007Z,44.00
2018-05-18T15:36:07.143Z,43.60
2018-05-18T15:38:35.543Z,43.50
2018-05-18T15:41:03.938Z,43.80
2018-05-18T15:43:33.830Z,43.90
2018-05-18T15:46:02.501Z,43.80
2018-05-18T15:48:30.865Z,45.10
2018-05-18T15:50:59.240Z,45.80
2018-05-18T15:53:27.680Z,45.30
2018-05-18T15:55:56.123Z,46.10
2018-05-18T15:58:25.010Z,46.90
2018-05-18T16:00:53.376Z,46.50
2018-05-18T16:03:21.816Z,47.20
2018-05-18T16:05:51.001Z,46.90
2018-05-18T16:08:19.377Z,46.70
2018-05-18T16:10:47.790Z,47.10
2018-05-18T16:13:16.160Z,46.90
2018-05-18T16:15:45.300Z,46.10
2018-05-18T16:18:13.705Z,46.20
2018-05-18T16:20:42.843Z,45.80
2018-05-18T16:23:11.300Z,45.80
2018-05-18T16:25:40.517Z,46.00
2018-05-18T16:28:09.726Z,46.50
2018-05-18T16:30:38.129Z,46.50
2018-05-18T16:33:06.505Z,46.90
2018-05-18T16:35:35.075Z,47.40
2018-05-18T16:38:03.845Z,46.80
2018-05-18T16:40:37.749Z,47.50
2018-05-18T16:43:09.506Z,47.90
2018-05-18T16:45:38.816Z,48.90
2018-05-18T16:48:07.222Z,47.50
2018-05-18T16:50:35.594Z,47.90
2018-05-18T16:53:03.996Z,48.00
2018-05-18T16:55:32.374Z,47.20
2018-05-18T16:58:00.775Z,46.50
2018-05-18T17:00:29.156Z,48.20
2018-05-18T17:02:57.892Z,48.60
2018-05-18T17:05:26.272Z,48.50
2018-05-18T17:07:54.657Z,49.80
2018-05-18T17:10:23.060Z,49.10
2018-05-18T17:12:51.456Z,49.50
2018-05-18T17:15:20.624Z,49.90
2018-05-18T17:17:49.008Z,49.70
2018-05-18T17:20:17.676Z,49.40
2018-05-18T17:22:46.053Z,49.20
2018-05-18T17:25:15.105Z,50.20
2018-05-18T17:27:45.575Z,50.50
2018-05-18T17:30:13.975Z,50.60
2018-05-18T17:32:43.293Z,50.40
2018-05-18T17:35:12.440Z,51.60
2018-05-18T17:37:41.029Z,51.50
2018-05-18T17:40:09.432Z,52.20
2018-05-18T17:42:37.908Z,52.00
2018-05-18T17:45:06.376Z,52.50
2018-05-18T17:47:34.820Z,52.70
2018-05-18T17:50:03.338Z,53.10
2018-05-18T17:52:32.596Z,52.70
2018-05-18T17:55:01.269Z,52.70
2018-05-18T17:57:30.433Z,53.00
2018-05-18T17:59:58.957Z,53.00
2018-05-18T18:02:27.354Z,53.30
2018-05-18T18:04:55.773Z,53.70
2018-05-18T18:07:24.180Z,54.30
2018-05-18T18:09:53.419Z,54.60
2018-05-18T18:12:21.916Z,54.60
2018-05-18T18:14:50.289Z,54.90
2018-05-18T18:17:18.825Z,55.30
2018-05-18T18:19:48.002Z,56.00
2018-05-18T18:22:16.393Z,55.90
2018-05-18T18:24:45.689Z,57.00
2018-05-18T18:27:14.071Z,57.00
2018-05-18T18:29:43.265Z,57.40
2018-05-18T18:32:11.762Z,57.30
2018-05-18T18:34:40.965Z,58.60
2018-05-18T18:37:09.605Z,58.50
2018-05-18T18:39:37.988Z,58.90
2018-05-18T18:42:06.395Z,59.10
2018-05-18T18:44:35.606Z,59.10
2018-05-18T18:47:04.216Z,59.10
2018-05-18T18:49:32.640Z,59.00
2018-05-18T18:52:01.248Z,59.10
2018-05-18T18:54:29.822Z,59.50
2018-05-18T18:56:59.052Z,60.90
2018-05-18T18:59:28.172Z,60.80
2018-05-18T19:01:56.777Z,60.80
2018-05-18T19:04:25.286Z,60.60
2018-05-18T19:06:54.512Z,61.40
2018-05-18T19:09:23.452Z,61.40
2018-05-18T19:11:52.917Z,62.40
2018-05-18T19:14:21.350Z,62.40
2018-05-18T19:16:49.792Z,62.70
2018-05-18T19:19:18.433Z,62.80
2018-05-18T19:21:47.039Z,62.80
2018-05-18T19:24:15.537Z,63.10
2018-05-18T19:26:43.972Z,63.90
2018-05-18T19:29:12.592Z,64.20
2018-05-18T19:31:41.113Z,64.70
2018-05-18T19:34:10.483Z,65.70
2018-05-18T19:36:39.002Z,65.70
2018-05-18T19:39:07.751Z,66.30
2018-05-18T19:41:36.217Z,67.50
2018-05-18T19:44:04.693Z,66.70
2018-05-18T19:46:33.705Z,66.90
2018-05-18T19:49:02.377Z,68.20
2018-05-18T19:51:30.811Z,68.20
2018-05-18T19:54:00.067Z,68.30
2018-05-18T19:56:28.660Z,68.20
2018-05-18T19:58:57.049Z,69.50
2018-05-18T20:01:25.511Z,69.80
2018-05-18T20:03:53.989Z,70.00
2018-05-18T20:06:22.908Z,69.50
2018-05-18T20:08:52.571Z,70.40
2018-05-18T20:11:20.992Z,70.40
2018-05-18T20:13:50.526Z,70.20
2018-05-18T20:16:19.518Z,71.00
2018-05-18T20:18:49.316Z,70.70
2018-05-18T20:21:19.317Z,71.00
2018-05-18T20:23:49.947Z,71.50
2018-05-18T20:26:19.429Z,71.60
2018-05-18T20:28:48.016Z,71.70
2018-05-18T20:31:16.433Z,72.00
2018-05-18T20:33:45.629Z,71.90
2018-05-18T20:36:14.106Z,71.90
2018-05-18T20:38:43.473Z,71.40
2018-05-18T20:41:12.968Z,72.00
2018-05-18T20:43:42.585Z,73.00
2018-05-18T20:46:12.192Z,72.00
2018-05-18T20:48:41.397Z,71.80
2018-05-18T20:51:11.043Z,71.50
2018-05-18T20:53:39.938Z,71.50
2018-05-18T20:56:09.068Z,72.00
2018-05-18T20:58:38.032Z,72.30
2018-05-18T21:01:06.890Z,72.50
2018-05-18T21:03:35.750Z,72.80
2018-05-18T21:06:06.457Z,72.00
2018-05-18T21:08:36.128Z,72.80
2018-05-18T21:11:06.480Z,73.00
2018-05-18T21:13:36.242Z,73.50
2018-05-18T21:16:05.330Z,73.90
2018-05-18T21:18:35.570Z,74.90
2018-05-18T21:21:06.939Z,73.70
2018-05-18T21:23:36.661Z,73.70
2018-05-18T21:26:06.625Z,74.20
2018-05-18T21:28:36.436Z,74.20
2018-05-18T21:31:05.856Z,74.90
2018-05-18T21:33:36.071Z,74.30
2018-05-18T21:36:06.586Z,74.20
2018-05-18T21:38:36.195Z,74.10
2018-05-18T21:41:06.496Z,74.40
2018-05-18T21:43:37.192Z,74.40
2018-05-18T21:46:06.343Z,75.00
2018-05-18T21:48:36.272Z,74.80
2018-05-18T21:51:04.783Z,75.40
2018-05-18T21:53:33.933Z,75.40
2018-05-18T21:56:03.418Z,75.20
2018-05-18T21:58:32.177Z,76.10
2018-05-18T22:01:01.911Z,75.70
2018-05-18T22:03:31.475Z,75.90
2018-05-18T22:06:02.136Z,75.50
2018-05-18T22:08:32.335Z,75.70
2018-05-18T22:11:01.187Z,75.60
2018-05-18T22:13:30.676Z,76.60
2018-05-18T22:16:00.169Z,76.90
2018-05-18T22:18:28.640Z,76.90
2018-05-18T22:20:57.381Z,76.50
2018-05-18T22:23:26.251Z,76.60
2018-05-18T22:25:55.221Z,76.20
2018-05-18T22:28:23.617Z,76.60
2018-05-18T22:30:52.105Z,77.00
2018-05-18T22:33:20.789Z,77.00
2018-05-18T22:35:49.679Z,76.70
2018-05-18T22:38:18.465Z,76.70
2018-05-18T22:40:47.037Z,76.10
2018-05-18T22:43:20.293Z,76.10
2018-05-18T22:45:49.324Z,76.00
2018-05-18T22:48:21.940Z,76.00
2018-05-18T22:50:50.366Z,76.10
2018-05-18T22:53:20.231Z,76.00
2018-05-18T22:55:48.614Z,75.90
2018-05-18T22:58:20.214Z,75.80
2018-05-18T23:00:49.193Z,75.70
2018-05-18T23:03:17.604Z,75.40
2018-05-18T23:05:48.356Z,75.70
2018-05-18T23:08:16.756Z,77.00
2018-05-18T23:10:56.292Z,76.20
2018-05-18T23:13:25.093Z,75.90
2018-05-18T23:15:54.235Z,75.90
2018-05-18T23:18:23.965Z,75.80
2018-05-18T23:20:53.626Z,75.80
2018-05-18T23:23:22.452Z,75.70
2018-05-18T23:25:50.922Z,76.10
2018-05-18T23:28:19.267Z,76.30
2018-05-18T23:30:50.725Z,76.50
2018-05-18T23:33:20.097Z,76.50
2018-05-18T23:35:48.475Z,76.70
2018-05-18T23:38:17.503Z,77.60
2018-05-18T23:40:47.500Z,77.10
2018-05-18T23:43:16.674Z,78.20
2018-05-18T23:45:45.049Z,78.10
2018-05-18T23:48:13.805Z,77.70
2018-05-18T23:50:42.216Z,77.40
2018-05-18T23:53:10.596Z,77.50
2018-05-18T23:55:39.049Z,77.70
2018-05-18T23:58:07.493Z,77.70
